AKST,Max TemperatureF,Mean TemperatureF,Min TemperatureF,Max Dew PointF,MeanDew PointF,Min DewpointF,Max Humidity, Mean Humidity, Min Humidity, Max Sea Level PressureIn, Mean Sea Level PressureIn, Min Sea Level PressureIn, Max VisibilityMiles, Mean VisibilityMiles, Min VisibilityMiles, Max Wind SpeedMPH, Mean Wind SpeedMPH, Max Gust SpeedMPH,PrecipitationIn, CloudCover, Events, WindDirDegrees
2012-2-1,36,28,19,32,29,15,96,86,66,29.38,28.79,28.58,10,3,0,16,4,30,1.93,8,Fog-Rain-Snow,292
2012-2-2,39,36,32,34,30,26,93,80,60,29.23,29.07,28.71,10,7,1,37,20,50,0.31,8,Rain-Snow,180
2012-2-3,33,28,24,29,19,11,85,72,57,29.81,29.08,28.83,10,4,0,30,20,48,0.03,8,Snow,349
2012-2-4,27,20,14,21,13,9,81,74,58,30.22,30.11,29.86,10,10,10,13,5,23,0.00,4,,346
2012-2-5,37,32,26,34,30,21,100,86,70,30.06,29.91,29.81,10,8,0,12,4,,0.30,8,Fog-Rain-Snow,338
2012-2-6,43,34,24,35,30,25,100,92,68,30.07,30.01,29.97,10,7,1,18,4,22,0.01,6,Rain,304
2012-2-7,35,27,19,28,24,18,100,96,76,29.97,29.81,29.61,10,8,0,8,3,,0.00,1,Fog,341
2012-2-8,42,30,19,34,31,18,96,80,65,29.60,29.46,29.38,10,9,4,29,6,44,0.73,8,Rain,355
2012-2-9,41,37,33,34,29,23,89,73,49,29.84,29.67,29.42,10,9,2,26,14,44,0.21,6,Rain-Snow,74
2012-2-10,37,35,33,32,30,27,93,82,70,29.64,29.50,29.34,10,8,2,16,9,26,0.32,8,Rain-Snow,15
2012-2-11,39,36,33,34,31,28,93,82,63,29.41,29.24,29.18,10,8,2,15,6,21,0.23,8,Rain-Snow,209
2012-2-12,37,35,33,34,31,26,93,84,62,29.49,29.38,29.21,10,6,1,18,9,32,0.54,8,Rain-Snow,180
2012-2-13,35,34,33,32,31,30,93,88,81,29.45,29.33,29.24,10,5,1,7,2,,0.74,8,Rain-Snow,355
2012-2-14,33,28,23,30,26,20,93,87,81,29.91,29.73,29.50,10,8,1,8,2,,0.00,4,,1
2012-2-15,36,34,33,32,30,27,92,84,70,29.77,29.54,29.47,10,6,2,21,8,30,0.22,8,Snow,225
2012-2-16,37,35,33,32,30,27,92,86,65,29.66,29.59,29.53,10,6,0,15,2,17,0.36,8,Fog-Rain-Snow,157
2012-2-17,36,34,32,34,30,30,93,88,81,29.78,29.71,29.60,10,5,1,7,1,,0.21,8,Rain-Snow,180
2012-2-18,37,34,30,30,28,23,93,81,61,29.76,29.63,29.49,10,8,2,9,2,,0.01,8,Snow,352
2012-2-19,39,36,33,31,29,23,92,81,57,29.53,29.42,29.30,10,5,1,18,6,23,0.23,8,Snow,202
2012-2-20,39,36,33,31,28,22,92,73,58,29.25,28.89,28.65,10,8,2,20,10,28,0.02,8,Snow,342
2012-2-21,39,34,28,25,22,17,73,62,49,29.52,29.21,28.95,10,10,10,18,13,28,0.00,3,,6
2012-2-22,36,28,19,19,16,12,74,64,46,30.01,29.82,29.55,10,10,10,13,8,,0.00,1,,354
2012-2-23,30,28,26,18,16,14,71,60,50,30.14,30.08,30.01,10,10,10,20,14,29,0.00,4,,352
2012-2-24,27,24,21,15,13,10,69,60,53,30.20,30.18,30.15,10,10,10,22,15,32,0.00,1,,355
2012-2-25,28,22,15,25,15,5,93,70,49,30.25,30.18,30.06,10,7,0,21,8,31,0.21,6,Fog-Snow,358
2012-2-26,35,34,32,31,30,30,92,87,81,30.04,29.63,29.23,5,2,0,24,13,31,1.11,8,Fog-Snow,182
2012-2-27,35,32,30,30,28,21,93,82,61,29.33,29.23,29.21,10,5,1,17,3,26,0.07,8,Snow,351
2012-2-28,32,26,19,20,13,11,68,62,55,29.57,29.49,29.34,10,9,5,31,23,41,0.00,4,Snow,352
2012-2-29,24,21,16,14,12,10,81,69,59,29.62,29.53,29.48,10,3,0,31,23,44,0.00,7,Snow,1